createdAt,value
2022-08-17T00:00:51.891Z,100.00
2022-08-17T00:01:52.857Z,100.00
2022-08-17T00:03:00.363Z,100.00
2022-08-17T00:04:11.626Z,100.00
2022-08-17T00:05:11.826Z,100.00
2022-08-17T00:06:19.685Z,100.00
2022-08-17T00:07:24.345Z,100.00
2022-08-17T00:08:36.975Z,100.00
2022-08-17T00:09:41.004Z,100.00
2022-08-17T00:10:46.723Z,100.00
2022-08-17T00:12:40.551Z,100.00
2022-08-17T00:12:57.432Z,100.00
2022-08-17T00:14:04.486Z,100.00
2022-08-17T00:15:12.076Z,100.00
2022-08-17T00:16:22.806Z,100.00
2022-08-17T00:17:28.610Z,100.00
2022-08-17T00:19:02.109Z,100.00
2022-08-17T00:19:39.390Z,100.00
2022-08-17T00:20:43.811Z,100.00
2022-08-17T00:22:31.670Z,100.00
2022-08-17T00:23:07.675Z,100.00
2022-08-17T00:24:11.999Z,100.00
2022-08-17T00:25:18.758Z,100.00
2022-08-17T00:26:44.397Z,100.00
2022-08-17T00:27:31.642Z,100.00
2022-08-17T00:28:36.393Z,100.00
2022-08-17T00:29:43.440Z,100.00
2022-08-17T00:30:53.217Z,100.00
2022-08-17T00:31:55.539Z,100.00
2022-08-17T00:33:15.011Z,100.00
2022-08-17T00:34:06.588Z,100.00
2022-08-17T00:35:13.427Z,100.00
2022-08-17T00:36:18.356Z,100.00
2022-08-17T00:37:22.438Z,100.00
2022-08-17T00:38:28.028Z,100.00
2022-08-17T00:39:32.275Z,100.00
2022-08-17T00:40:44.498Z,100.00
2022-08-17T00:41:45.813Z,100.00
2022-08-17T00:42:50.739Z,100.00
2022-08-17T00:44:00.646Z,100.00
2022-08-17T00:45:07.345Z,100.00
2022-08-17T00:46:15.351Z,100.00
2022-08-17T00:47:19.390Z,100.00
2022-08-17T00:48:30.107Z,100.00
2022-08-17T00:49:30.543Z,100.00
2022-08-17T00:50:36.175Z,100.00
2022-08-17T00:51:43.166Z,100.00
2022-08-17T00:52:50.477Z,100.00
2022-08-17T00:54:00.328Z,100.00
2022-08-17T00:55:06.993Z,100.00
2022-08-17T00:56:15.597Z,100.00
2022-08-17T00:57:25.364Z,100.00
2022-08-17T00:58:36.055Z,100.00
2022-08-17T00:59:39.364Z,100.00
2022-08-17T01:00:48.055Z,100.00
2022-08-17T01:01:53.190Z,100.00
2022-08-17T01:03:00.217Z,100.00
2022-08-17T01:04:05.146Z,100.00
2022-08-17T01:05:11.313Z,100.00
2022-08-17T01:06:16.111Z,100.00
2022-08-17T01:07:23.820Z,100.00
2022-08-17T01:08:31.118Z,100.00
2022-08-17T01:09:35.391Z,100.00
2022-08-17T01:10:59.653Z,100.00
2022-08-17T01:11:51.707Z,100.00
2022-08-17T01:12:56.348Z,100.00
2022-08-17T01:14:00.480Z,100.00
2022-08-17T01:15:06.311Z,100.00
2022-08-17T01:16:20.215Z,100.00
2022-08-17T01:17:25.810Z,100.00
2022-08-17T01:18:31.234Z,100.00
2022-08-17T01:19:38.549Z,100.00
2022-08-17T01:20:51.294Z,100.00
2022-08-17T01:22:13.338Z,100.00
2022-08-17T01:23:20.509Z,100.00
2022-08-17T01:24:25.163Z,100.00
2022-08-17T01:25:30.993Z,100.00
2022-08-17T01:26:37.131Z,100.00
2022-08-17T01:27:43.062Z,100.00
2022-08-17T01:28:53.935Z,100.00
2022-08-17T01:29:56.001Z,100.00
2022-08-17T01:31:03.074Z,100.00
2022-08-17T01:32:08.643Z,100.00
2022-08-17T01:33:15.054Z,100.00
2022-08-17T01:34:20.613Z,100.00
2022-08-17T01:35:24.895Z,100.00
2022-08-17T01:36:30.565Z,100.00
2022-08-17T01:37:37.587Z,100.00
2022-08-17T01:38:41.685Z,100.00
2022-08-17T01:39:51.690Z,100.00
2022-08-17T01:40:58.733Z,100.00
2022-08-17T01:42:08.536Z,100.00
2022-08-17T01:43:23.083Z,100.00
2022-08-17T01:44:28.269Z,100.00
2022-08-17T01:45:36.441Z,100.00
2022-08-17T01:46:40.683Z,100.00
2022-08-17T01:47:45.395Z,100.00
2022-08-17T01:48:49.840Z,100.00
2022-08-17T01:49:53.963Z,100.00
2022-08-17T01:50:59.974Z,100.00
2022-08-17T01:52:09.431Z,100.00
2022-08-17T01:53:25.855Z,100.00
2022-08-17T01:54:30.104Z,100.00
2022-08-17T01:55:37.101Z,100.00
2022-08-17T01:56:44.300Z,100.00
2022-08-17T01:57:49.970Z,100.00
2022-08-17T01:58:54.418Z,100.00
2022-08-17T01:59:58.953Z,100.00
2022-08-17T02:01:08.680Z,100.00
2022-08-17T02:02:10.084Z,100.00
2022-08-17T02:03:14.305Z,100.00
2022-08-17T02:04:18.577Z,100.00
2022-08-17T02:05:23.949Z,100.00
2022-08-17T02:06:31.293Z,100.00
2022-08-17T02:07:59.337Z,100.00
2022-08-17T02:09:03.187Z,100.00
2022-08-17T02:09:49.335Z,100.00
2022-08-17T02:10:54.784Z,100.00
2022-08-17T02:12:05.776Z,100.00
2022-08-17T02:13:06.941Z,100.00
2022-08-17T02:14:11.743Z,100.00
2022-08-17T02:15:15.984Z,100.00
2022-08-17T02:16:21.711Z,100.00
2022-08-17T02:17:27.825Z,100.00
2022-08-17T02:18:31.619Z,100.00
2022-08-17T02:19:35.578Z,100.00
2022-08-17T02:20:42.875Z,100.00
2022-08-17T02:21:49.365Z,100.00
2022-08-17T02:22:53.459Z,100.00
2022-08-17T02:23:57.784Z,100.00
2022-08-17T02:25:03.855Z,100.00
2022-08-17T02:26:08.546Z,100.00
2022-08-17T02:27:16.363Z,100.00
2022-08-17T02:28:20.027Z,100.00
2022-08-17T02:29:24.067Z,100.00
2022-08-17T02:31:02.203Z,100.00
2022-08-17T02:31:37.004Z,100.00
2022-08-17T02:32:41.255Z,100.00
2022-08-17T02:33:45.233Z,100.00
2022-08-17T02:34:51.157Z,100.00
2022-08-17T02:35:55.302Z,100.00
2022-08-17T02:36:59.789Z,100.00
2022-08-17T02:38:05.637Z,100.00
2022-08-17T02:39:11.549Z,100.00
2022-08-17T02:40:16.946Z,100.00
2022-08-17T02:41:22.804Z,100.00
2022-08-17T02:42:35.589Z,100.00
2022-08-17T02:43:39.611Z,100.00
2022-08-17T02:44:43.660Z,100.00
2022-08-17T02:45:47.797Z,100.00
2022-08-17T02:46:51.875Z,100.00
2022-08-17T02:47:56.277Z,100.00
2022-08-17T02:49:02.419Z,100.00
2022-08-17T02:50:09.399Z,100.00
2022-08-17T02:51:13.653Z,100.00
2022-08-17T02:52:17.635Z,100.00
2022-08-17T02:53:24.643Z,100.00
2022-08-17T02:54:41.123Z,100.00
2022-08-17T02:55:37.781Z,100.00
2022-08-17T02:56:42.157Z,100.00
2022-08-17T02:57:46.897Z,100.00
2022-08-17T02:58:50.870Z,100.00
2022-08-17T02:59:54.871Z,100.00
2022-08-17T03:00:59.100Z,100.00
2022-08-17T03:02:05.026Z,100.00
2022-08-17T03:03:12.367Z,100.00
2022-08-17T03:04:16.588Z,100.00
2022-08-17T03:05:26.742Z,100.00
2022-08-17T03:06:31.028Z,100.00
2022-08-17T03:07:35.700Z,100.00
2022-08-17T03:08:39.855Z,100.00
2022-08-17T03:09:43.834Z,100.00
2022-08-17T03:10:47.884Z,100.00
2022-08-17T03:11:53.431Z,100.00
2022-08-17T03:12:59.737Z,100.00
2022-08-17T03:14:03.824Z,100.00
2022-08-17T03:15:11.292Z,100.00
2022-08-17T03:16:16.146Z,100.00
2022-08-17T03:17:20.274Z,100.00
2022-08-17T03:18:26.220Z,100.00
2022-08-17T03:19:30.571Z,100.00
2022-08-17T03:20:35.341Z,100.00
2022-08-17T03:21:40.636Z,100.00
2022-08-17T03:22:53.062Z,100.00
2022-08-17T03:23:55.932Z,100.00
2022-08-17T03:25:00.045Z,100.00
2022-08-17T03:26:05.137Z,100.00
2022-08-17T03:27:10.945Z,100.00
2022-08-17T03:28:16.504Z,100.00
2022-08-17T03:29:20.486Z,100.00
2022-08-17T03:30:27.139Z,100.00
2022-08-17T03:31:31.212Z,100.00
2022-08-17T03:32:40.678Z,100.00
2022-08-17T03:33:44.781Z,100.00
2022-08-17T03:34:49.118Z,100.00
2022-08-17T03:35:53.344Z,100.00
2022-08-17T03:36:57.687Z,99.21
2022-08-17T03:38:02.405Z,97.48
2022-08-17T03:39:06.576Z,96.50
2022-08-17T03:40:12.478Z,94.58
2022-08-17T03:41:16.477Z,93.40
2022-08-17T03:42:32.383Z,92.85
2022-08-17T03:43:31.969Z,91.42
2022-08-17T03:44:36.160Z,91.01
2022-08-17T03:45:40.560Z,91.01
2022-08-17T03:46:45.955Z,89.24
2022-08-17T03:47:50.004Z,86.90
2022-08-17T03:48:54.378Z,85.93
2022-08-17T03:50:03.960Z,85.65
2022-08-17T03:51:04.813Z,85.61
2022-08-17T03:52:08.931Z,85.69
2022-08-17T03:53:16.172Z,85.69
2022-08-17T03:54:27.414Z,85.57
2022-08-17T03:55:36.240Z,86.05
2022-08-17T03:56:36.822Z,85.26
2022-08-17T03:57:40.806Z,83.27
2022-08-17T03:58:45.234Z,82.31
2022-08-17T03:59:49.427Z,81.63
2022-08-17T04:00:56.222Z,80.68
2022-08-17T04:02:05.900Z,80.68
2022-08-17T04:03:10.061Z,79.85
2022-08-17T04:04:17.452Z,79.31
2022-08-17T04:05:21.770Z,77.09
2022-08-17T04:06:25.860Z,76.60
2022-08-17T04:07:31.757Z,76.52
2022-08-17T04:08:42.500Z,76.52
2022-08-17T04:09:46.567Z,75.55
2022-08-17T04:10:50.770Z,74.68
2022-08-17T04:11:55.023Z,74.68
2022-08-17T04:13:00.869Z,74.25
2022-08-17T04:14:09.298Z,73.84
2022-08-17T04:15:14.888Z,73.97
2022-08-17T04:16:20.246Z,73.11
2022-08-17T04:17:27.165Z,73.11
2022-08-17T04:19:59.091Z,71.16
2022-08-17T04:21:05.866Z,71.16
2022-08-17T04:22:09.894Z,70.06
2022-08-17T04:23:17.836Z,69.67
2022-08-17T04:24:21.796Z,69.67
2022-08-17T04:25:52.311Z,68.75
2022-08-17T04:26:52.250Z,68.56
2022-08-17T04:27:41.039Z,67.50
2022-08-17T04:28:45.550Z,67.38
2022-08-17T04:29:54.659Z,66.92
2022-08-17T04:30:55.409Z,66.92
2022-08-17T04:31:59.367Z,65.87
2022-08-17T04:33:12.020Z,65.87
2022-08-17T04:34:19.793Z,66.15
2022-08-17T04:35:26.220Z,66.56
2022-08-17T04:36:30.349Z,66.56
2022-08-17T04:37:34.401Z,66.75
2022-08-17T04:38:40.990Z,68.11
2022-08-17T04:40:10.698Z,68.11
2022-08-17T04:40:56.247Z,68.83
2022-08-17T04:42:01.771Z,70.51
2022-08-17T04:43:08.512Z,70.51
2022-08-17T04:44:27.288Z,71.92
2022-08-17T04:45:24.003Z,72.47
2022-08-17T04:46:35.067Z,72.47
2022-08-17T04:47:39.032Z,73.21
2022-08-17T04:48:45.729Z,73.93
2022-08-17T04:49:49.727Z,75.04
2022-08-17T04:50:53.843Z,75.18
2022-08-17T04:52:00.039Z,74.65
2022-08-17T04:53:05.174Z,75.16
2022-08-17T04:54:12.310Z,74.31
2022-08-17T04:55:16.420Z,73.06
2022-08-17T04:56:21.732Z,73.06
2022-08-17T04:57:27.525Z,72.42
2022-08-17T04:58:32.191Z,71.47
2022-08-17T04:59:36.260Z,71.00
2022-08-17T05:00:40.365Z,71.00
2022-08-17T05:01:46.590Z,71.46
2022-08-17T05:02:52.275Z,71.28
2022-08-17T05:03:58.905Z,72.35
2022-08-17T05:05:04.837Z,73.17
2022-08-17T05:06:10.456Z,73.03
2022-08-17T05:07:14.487Z,72.10
2022-08-17T05:08:21.817Z,69.53
2022-08-17T05:09:27.454Z,69.33
2022-08-17T05:10:35.950Z,68.42
2022-08-17T05:11:45.063Z,67.45
2022-08-17T05:12:47.890Z,67.45
2022-08-17T05:13:55.168Z,65.00
2022-08-17T05:14:59.152Z,65.00
2022-08-17T05:16:05.445Z,64.01
2022-08-17T05:17:11.445Z,64.01
2022-08-17T05:18:17.183Z,63.99
2022-08-17T05:19:21.210Z,63.31
2022-08-17T05:20:26.562Z,63.31
2022-08-17T05:21:30.888Z,63.13
2022-08-17T05:22:36.517Z,61.41
2022-08-17T05:23:42.833Z,61.52
2022-08-17T05:24:53.499Z,61.12
2022-08-17T05:25:54.692Z,61.50
2022-08-17T05:27:06.382Z,61.50
2022-08-17T05:28:06.353Z,62.46
2022-08-17T05:29:14.977Z,60.85
2022-08-17T05:30:19.567Z,60.00
2022-08-17T05:31:23.597Z,58.82
2022-08-17T05:32:38.256Z,58.75
2022-08-17T05:33:36.717Z,58.72
2022-08-17T05:34:40.754Z,59.07
2022-08-17T05:35:50.169Z,59.20
2022-08-17T05:36:54.102Z,59.20
2022-08-17T05:38:02.024Z,59.36
2022-08-17T05:39:15.974Z,59.36
2022-08-17T05:40:12.818Z,59.46
2022-08-17T05:41:16.926Z,59.33
2022-08-17T05:42:23.931Z,58.43
2022-08-17T05:43:31.150Z,58.43
2022-08-17T05:44:36.767Z,59.63
2022-08-17T05:45:56.577Z,59.80
2022-08-17T05:47:02.217Z,59.80
2022-08-17T05:48:07.274Z,59.95
2022-08-17T05:49:14.363Z,59.95
2022-08-17T05:50:33.781Z,59.79
2022-08-17T05:52:03.241Z,59.79
2022-08-17T05:53:12.726Z,60.01
2022-08-17T05:54:19.735Z,60.37
2022-08-17T05:55:32.487Z,60.19
2022-08-17T05:56:52.856Z,60.19
2022-08-17T05:58:26.386Z,60.33
2022-08-17T05:59:54.243Z,61.51
2022-08-17T06:01:05.834Z,60.28
2022-08-17T06:02:23.263Z,60.28
2022-08-17T06:03:38.874Z,60.09
2022-08-17T06:05:02.409Z,60.95
2022-08-17T06:06:21.709Z,59.96
2022-08-17T06:07:35.569Z,59.54
2022-08-17T06:08:58.840Z,59.31
2022-08-17T06:10:05.873Z,59.31
2022-08-17T06:11:15.992Z,60.40
2022-08-17T06:12:27.329Z,61.16
2022-08-17T06:13:52.645Z,61.36
2022-08-17T06:15:05.400Z,59.31
2022-08-17T06:16:33.213Z,60.09
2022-08-17T06:17:22.792Z,60.09
2022-08-17T06:18:29.795Z,60.31
2022-08-17T06:19:45.404Z,60.53
2022-08-17T06:21:04.131Z,59.89
2022-08-17T06:22:10.957Z,59.89
2022-08-17T06:23:20.754Z,59.43
2022-08-17T06:24:43.357Z,60.21
2022-08-17T06:25:55.121Z,60.21
2022-08-17T06:27:08.144Z,60.51
2022-08-17T06:28:15.493Z,60.67
2022-08-17T06:29:37.162Z,59.88
2022-08-17T06:30:59.922Z,60.08
2022-08-17T06:31:59.313Z,60.08
2022-08-17T06:33:06.340Z,60.52
2022-08-17T06:34:12.849Z,59.95
2022-08-17T06:35:31.883Z,59.95
2022-08-17T06:36:47.735Z,59.82
2022-08-17T06:38:33.954Z,60.79
2022-08-17T06:39:47.093Z,60.64
2022-08-17T06:40:59.874Z,60.64
2022-08-17T06:42:54.716Z,59.62
2022-08-17T06:43:50.264Z,60.18
2022-08-17T06:45:09.233Z,60.41
2022-08-17T06:46:23.860Z,59.53
2022-08-17T06:47:43.539Z,59.71
2022-08-17T06:49:05.398Z,59.43
2022-08-17T06:50:27.696Z,59.71
2022-08-17T06:51:34.696Z,59.71
2022-08-17T06:52:47.669Z,59.87
2022-08-17T06:54:06.817Z,60.25
2022-08-17T06:55:38.432Z,60.25
2022-08-17T06:56:25.669Z,60.72
2022-08-17T06:57:34.408Z,60.39
2022-08-17T06:58:42.992Z,60.40
2022-08-17T06:59:56.783Z,60.25
2022-08-17T07:01:09.581Z,59.06
2022-08-17T07:02:16.606Z,59.06
2022-08-17T07:03:41.543Z,57.12
2022-08-17T07:04:47.168Z,56.95
2022-08-17T07:06:03.621Z,56.95
2022-08-17T07:07:10.794Z,57.59
2022-08-17T07:08:20.526Z,55.92
2022-08-17T07:09:33.320Z,56.51
2022-08-17T07:10:43.174Z,56.14
2022-08-17T07:11:52.820Z,55.26
2022-08-17T07:13:01.283Z,55.26
2022-08-17T07:14:34.025Z,54.96
2022-08-17T07:15:41.001Z,54.96
2022-08-17T07:16:51.490Z,54.28
2022-08-17T07:17:55.532Z,54.47
2022-08-17T07:19:00.089Z,54.47
2022-08-17T07:20:08.676Z,54.09
2022-08-17T07:21:22.947Z,53.96
2022-08-17T07:22:59.620Z,53.96
2022-08-17T07:24:29.537Z,55.02
2022-08-17T07:25:29.386Z,55.02
2022-08-17T07:26:33.561Z,54.91
2022-08-17T07:27:43.304Z,54.91
2022-08-17T07:28:47.431Z,53.16
2022-08-17T07:30:10.242Z,54.52
2022-08-17T07:31:12.027Z,54.52
2022-08-17T07:32:19.196Z,53.22
2022-08-17T07:33:26.412Z,54.54
2022-08-17T07:34:30.478Z,54.54
2022-08-17T07:35:44.138Z,54.85
2022-08-17T07:36:47.527Z,55.15
2022-08-17T07:37:54.511Z,55.34
2022-08-17T07:39:02.301Z,55.34
2022-08-17T07:40:22.772Z,54.97
2022-08-17T07:41:27.901Z,51.79
2022-08-17T07:42:34.439Z,51.79
2022-08-17T07:43:44.444Z,52.80
2022-08-17T07:44:55.600Z,53.14
2022-08-17T07:46:07.526Z,53.14
2022-08-17T07:47:14.542Z,51.72
2022-08-17T07:48:23.077Z,51.72
2022-08-17T07:49:41.905Z,51.58
2022-08-17T07:50:49.636Z,52.26
2022-08-17T07:51:54.994Z,50.89
2022-08-17T07:53:09.601Z,53.82
2022-08-17T07:54:19.589Z,53.82
2022-08-17T07:55:32.167Z,54.09
2022-08-17T07:56:42.972Z,54.09
2022-08-17T07:57:51.378Z,53.26
2022-08-17T07:59:07.103Z,52.95
2022-08-17T08:00:16.310Z,53.30
2022-08-17T08:01:20.720Z,53.30
2022-08-17T08:02:31.837Z,53.36
2022-08-17T08:03:37.870Z,52.28
2022-08-17T08:05:00.656Z,52.50
2022-08-17T08:05:57.676Z,52.79
2022-08-17T08:07:04.507Z,53.57
2022-08-17T08:08:23.301Z,53.57
2022-08-17T08:09:35.240Z,52.25
2022-08-17T08:10:42.768Z,51.62
2022-08-17T08:11:48.015Z,54.29
2022-08-17T08:13:03.780Z,54.29
2022-08-17T08:14:28.362Z,54.57
2022-08-17T08:15:40.301Z,54.26
2022-08-17T08:17:03.759Z,54.46
2022-08-17T08:19:41.764Z,54.92
2022-08-17T08:21:00.832Z,55.07
2022-08-17T08:22:13.723Z,55.07
2022-08-17T08:23:27.765Z,53.69
2022-08-17T08:24:43.172Z,54.69
2022-08-17T08:27:05.741Z,54.81
2022-08-17T08:27:27.011Z,55.52
2022-08-17T08:29:02.489Z,55.52
2022-08-17T08:30:21.572Z,54.23
2022-08-17T08:31:42.039Z,54.23
2022-08-17T08:33:04.009Z,55.23
2022-08-17T08:34:53.227Z,55.56
2022-08-17T08:35:53.702Z,56.43
2022-08-17T08:37:30.309Z,56.82
2022-08-17T08:38:40.827Z,56.82
2022-08-17T08:39:56.677Z,53.61
2022-08-17T08:41:18.912Z,53.61
2022-08-17T08:42:28.906Z,53.84
2022-08-17T08:43:36.924Z,56.15
2022-08-17T08:45:04.798Z,56.15
2022-08-17T08:46:25.723Z,57.23
2022-08-17T08:47:43.069Z,56.69
2022-08-17T08:49:12.394Z,56.23
2022-08-17T08:50:37.506Z,57.22
2022-08-17T08:51:48.969Z,57.22
2022-08-17T08:53:06.056Z,57.09
2022-08-17T08:54:31.513Z,58.42
2022-08-17T08:56:08.475Z,58.42
2022-08-17T08:57:26.974Z,59.20
2022-08-17T08:58:41.784Z,59.20
2022-08-17T09:00:11.752Z,59.32
2022-08-17T09:01:38.322Z,59.32
2022-08-17T09:02:48.256Z,60.91
2022-08-17T09:04:17.913Z,62.07
2022-08-17T09:05:21.710Z,61.29
2022-08-17T09:06:53.209Z,61.29
2022-08-17T09:08:05.416Z,58.09
2022-08-17T09:09:34.913Z,58.09
2022-08-17T09:10:58.693Z,57.33
2022-08-17T09:12:23.987Z,57.33
2022-08-17T09:13:54.422Z,56.82
2022-08-17T09:14:58.094Z,57.67
2022-08-17T09:16:05.073Z,57.67
2022-08-17T09:17:21.373Z,57.62
2022-08-17T09:19:00.458Z,58.33
2022-08-17T09:19:56.469Z,58.33
2022-08-17T09:21:05.014Z,59.30
2022-08-17T09:22:29.883Z,60.25
2022-08-17T09:23:36.893Z,59.76
2022-08-17T09:24:43.859Z,59.76
2022-08-17T09:25:56.304Z,60.31
2022-08-17T09:27:04.951Z,60.33
2022-08-17T09:28:16.189Z,60.24
2022-08-17T09:29:21.291Z,60.24
2022-08-17T09:30:30.063Z,59.99
2022-08-17T09:31:48.199Z,59.69
2022-08-17T09:33:07.824Z,60.08
2022-08-17T09:34:10.271Z,59.65
2022-08-17T09:35:22.507Z,59.65
2022-08-17T09:36:34.015Z,57.91
2022-08-17T09:37:42.648Z,58.61
2022-08-17T09:39:10.019Z,58.22
2022-08-17T09:40:16.901Z,58.22
2022-08-17T09:41:34.382Z,57.79
2022-08-17T09:42:50.678Z,58.28
2022-08-17T09:44:00.742Z,58.28
2022-08-17T09:45:13.310Z,57.39
2022-08-17T09:46:35.266Z,57.39
2022-08-17T09:47:50.166Z,58.58
2022-08-17T09:49:12.326Z,58.71
2022-08-17T09:51:03.663Z,58.71
2022-08-17T09:51:40.537Z,57.69
2022-08-17T09:52:44.772Z,57.19
2022-08-17T09:53:50.415Z,55.95
2022-08-17T09:54:56.846Z,56.59
2022-08-17T09:56:12.782Z,56.59
2022-08-17T09:57:51.776Z,59.02
2022-08-17T09:59:15.448Z,59.54
2022-08-17T10:00:25.840Z,57.57
2022-08-17T10:01:34.727Z,57.12
2022-08-17T10:02:41.798Z,57.20
2022-08-17T10:04:05.323Z,57.20
2022-08-17T10:05:14.894Z,56.53
2022-08-17T10:06:41.540Z,57.16
2022-08-17T10:07:54.494Z,57.96
2022-08-17T10:09:10.277Z,58.96
2022-08-17T10:10:20.381Z,58.96
2022-08-17T10:11:39.449Z,58.82
2022-08-17T10:13:18.526Z,56.52
2022-08-17T10:14:38.077Z,56.52
2022-08-17T10:15:49.347Z,56.73
2022-08-17T10:17:02.307Z,57.28
2022-08-17T10:18:09.293Z,57.28
2022-08-17T10:19:26.491Z,56.93
2022-08-17T10:20:33.814Z,55.38
2022-08-17T10:21:45.732Z,55.82
2022-08-17T10:22:54.923Z,55.82
2022-08-17T10:24:09.907Z,55.70
2022-08-17T10:25:23.820Z,56.43
2022-08-17T10:26:25.246Z,57.20
2022-08-17T10:27:35.171Z,57.39
2022-08-17T10:28:54.252Z,57.39
2022-08-17T10:30:03.079Z,56.85
2022-08-17T10:32:29.373Z,55.58
2022-08-17T10:33:36.373Z,56.66
2022-08-17T10:34:49.102Z,56.42
2022-08-17T10:36:10.146Z,55.22
2022-08-17T10:37:33.336Z,56.61
2022-08-17T10:38:49.000Z,57.67
2022-08-17T10:40:12.314Z,58.43
2022-08-17T10:41:28.548Z,58.43
2022-08-17T10:42:35.614Z,53.99
2022-08-17T10:44:38.549Z,53.99
2022-08-17T10:45:21.752Z,54.12
2022-08-17T10:46:31.787Z,53.70
2022-08-17T10:48:09.479Z,55.92
2022-08-17T10:49:22.104Z,55.82
2022-08-17T10:50:49.134Z,55.82
2022-08-17T10:51:57.191Z,56.76
2022-08-17T10:53:02.725Z,56.76
2022-08-17T10:54:08.875Z,56.91
2022-08-17T10:55:16.183Z,56.14
2022-08-17T10:56:23.377Z,56.14
2022-08-17T10:57:36.308Z,56.27
2022-08-17T10:58:56.556Z,54.41
2022-08-17T11:00:02.162Z,54.75
2022-08-17T11:01:06.320Z,54.75
2022-08-17T11:02:13.434Z,55.35
2022-08-17T11:03:24.672Z,55.34
2022-08-17T11:04:50.718Z,55.34
2022-08-17T11:06:06.375Z,55.93
2022-08-17T11:07:37.103Z,55.66
2022-08-17T11:08:55.912Z,55.66
2022-08-17T11:10:08.568Z,55.38
2022-08-17T11:11:24.396Z,55.36
2022-08-17T11:12:36.980Z,54.51
2022-08-17T11:13:55.471Z,55.54
2022-08-17T11:15:24.144Z,55.78
2022-08-17T11:16:47.376Z,55.78
2022-08-17T11:18:02.905Z,56.10
2022-08-17T11:19:41.406Z,56.10
2022-08-17T11:21:06.837Z,56.79
2022-08-17T11:22:19.548Z,57.94
2022-08-17T11:23:29.231Z,57.94
2022-08-17T11:24:45.628Z,54.60
2022-08-17T11:25:55.620Z,55.86
2022-08-17T11:27:17.267Z,55.86
2022-08-17T11:28:30.736Z,54.74
2022-08-17T11:30:02.138Z,54.74
2022-08-17T11:31:15.211Z,56.25
2022-08-17T11:32:33.076Z,56.25
2022-08-17T11:33:45.723Z,55.03
2022-08-17T11:34:49.824Z,55.74
2022-08-17T11:35:56.828Z,55.74
2022-08-17T11:37:13.358Z,54.44
2022-08-17T11:38:35.576Z,55.09
2022-08-17T11:40:13.703Z,55.09
2022-08-17T11:41:22.444Z,53.74
2022-08-17T11:42:45.690Z,53.74
2022-08-17T11:44:11.854Z,54.18
2022-08-17T11:45:39.965Z,54.20
2022-08-17T11:47:05.024Z,54.20
2022-08-17T11:48:28.841Z,55.24
2022-08-17T11:49:59.160Z,55.00
2022-08-17T11:51:11.876Z,54.98
2022-08-17T11:52:33.775Z,54.98
2022-08-17T11:53:40.904Z,55.60
2022-08-17T11:54:48.020Z,55.60
2022-08-17T11:55:57.676Z,55.76
2022-08-17T11:57:27.218Z,55.02
2022-08-17T11:58:34.214Z,56.05
2022-08-17T11:59:42.539Z,53.94
2022-08-17T12:00:50.047Z,54.79
2022-08-17T12:01:55.948Z,53.70
2022-08-17T12:03:21.102Z,53.10
2022-08-17T12:04:30.964Z,53.10
2022-08-17T12:05:36.352Z,54.34
2022-08-17T12:06:46.585Z,54.34
2022-08-17T12:08:08.372Z,54.10
2022-08-17T12:09:24.431Z,54.90
2022-08-17T12:10:32.931Z,55.63
2022-08-17T12:11:55.461Z,55.63
2022-08-17T12:12:51.539Z,54.58
2022-08-17T12:13:59.269Z,54.58
2022-08-17T12:15:10.679Z,54.49
2022-08-17T12:16:18.133Z,53.97
2022-08-17T12:17:41.107Z,54.63
2022-08-17T12:18:33.428Z,54.63
2022-08-17T12:19:40.333Z,55.69
2022-08-17T12:20:46.623Z,56.37
2022-08-17T12:21:59.391Z,54.18
2022-08-17T12:23:21.556Z,54.42
2022-08-17T12:24:55.590Z,54.42
2022-08-17T12:26:06.836Z,54.71
2022-08-17T12:27:13.221Z,53.68
2022-08-17T12:28:23.923Z,54.87
2022-08-17T12:29:38.931Z,53.11
2022-08-17T12:30:37.729Z,55.39
2022-08-17T12:31:50.146Z,55.39
2022-08-17T12:32:55.997Z,54.90
2022-08-17T12:34:00.430Z,54.90
2022-08-17T12:35:08.574Z,54.39
2022-08-17T12:36:19.162Z,52.49
2022-08-17T12:37:28.742Z,52.36
2022-08-17T12:38:37.410Z,52.33
2022-08-17T12:39:54.709Z,51.83
2022-08-17T12:41:02.262Z,51.83
2022-08-17T12:42:06.461Z,52.46
2022-08-17T12:43:20.143Z,51.78
2022-08-17T12:44:27.515Z,51.78
2022-08-17T12:45:42.049Z,52.29
2022-08-17T12:47:32.920Z,53.01
2022-08-17T12:48:58.951Z,52.01
2022-08-17T12:49:55.716Z,52.01
2022-08-17T12:51:02.741Z,52.47
2022-08-17T12:52:12.199Z,52.95
2022-08-17T12:53:31.279Z,52.34
2022-08-17T12:54:38.200Z,52.17
2022-08-17T12:55:43.508Z,51.93
2022-08-17T12:56:51.262Z,51.93
2022-08-17T12:57:57.018Z,52.45
2022-08-17T12:59:02.703Z,52.03
2022-08-17T13:00:16.592Z,52.03
2022-08-17T13:01:21.479Z,52.85
2022-08-17T13:02:40.240Z,52.75
2022-08-17T13:03:50.085Z,53.85
2022-08-17T13:04:58.392Z,54.93
2022-08-17T13:06:05.451Z,54.93
2022-08-17T13:07:11.553Z,54.93
2022-08-17T13:08:21.172Z,53.50
2022-08-17T13:09:35.819Z,53.50
2022-08-17T13:10:37.274Z,54.76
2022-08-17T13:11:52.752Z,54.76
2022-08-17T13:12:57.651Z,53.77
2022-08-17T13:14:04.643Z,53.77
2022-08-17T13:15:11.456Z,53.20
2022-08-17T13:16:19.356Z,53.20
2022-08-17T13:17:29.796Z,54.26
2022-08-17T13:18:42.764Z,53.82
2022-08-17T13:19:52.243Z,53.85
2022-08-17T13:20:59.281Z,54.04
2022-08-17T13:22:04.231Z,54.39
2022-08-17T13:23:12.459Z,53.33
2022-08-17T13:24:22.735Z,52.99
2022-08-17T13:25:29.962Z,53.42
2022-08-17T13:26:52.909Z,53.81
2022-08-17T13:27:57.543Z,54.27
2022-08-17T13:29:03.810Z,54.05
2022-08-17T13:30:12.624Z,54.48
2022-08-17T13:31:28.575Z,54.48
2022-08-17T13:32:43.695Z,55.14
2022-08-17T13:33:47.819Z,55.56
2022-08-17T13:35:14.413Z,56.08
2022-08-17T13:36:09.216Z,56.08
2022-08-17T13:37:20.831Z,52.99
2022-08-17T13:38:41.240Z,53.45
2022-08-17T13:39:45.960Z,53.99
2022-08-17T13:40:53.015Z,53.99
2022-08-17T13:41:57.341Z,53.78
2022-08-17T13:43:02.020Z,54.44
2022-08-17T13:44:31.880Z,54.46
2022-08-17T13:45:39.569Z,54.46
2022-08-17T13:46:47.510Z,54.22
2022-08-17T13:48:14.303Z,54.22
2022-08-17T13:49:20.724Z,55.24
2022-08-17T13:50:27.496Z,55.53
2022-08-17T13:53:00.641Z,54.98
2022-08-17T13:54:07.717Z,53.00
2022-08-17T13:55:22.878Z,53.00
2022-08-17T13:56:40.071Z,54.21
2022-08-17T13:57:50.066Z,53.91
2022-08-17T13:59:01.435Z,55.41
2022-08-17T14:00:11.459Z,55.41
2022-08-17T14:01:35.966Z,54.01
2022-08-17T14:02:43.048Z,54.87
2022-08-17T14:03:47.190Z,54.90
2022-08-17T14:04:55.147Z,54.78
2022-08-17T14:05:59.308Z,54.78
2022-08-17T14:07:15.451Z,56.02
2022-08-17T14:08:20.992Z,56.02
2022-08-17T14:09:37.708Z,55.39
2022-08-17T14:10:42.785Z,56.65
2022-08-17T14:11:48.308Z,56.65
2022-08-17T14:12:55.522Z,56.27
2022-08-17T14:13:59.542Z,56.94
2022-08-17T14:15:06.023Z,56.95
2022-08-17T14:16:10.504Z,55.17
2022-08-17T14:17:14.642Z,55.17
2022-08-17T14:18:18.604Z,55.10
2022-08-17T14:19:25.257Z,55.91
2022-08-17T14:20:30.948Z,54.86
2022-08-17T14:21:35.024Z,54.86
2022-08-17T14:22:45.920Z,55.64
2022-08-17T14:23:54.761Z,55.64
2022-08-17T14:24:55.753Z,56.50
2022-08-17T14:25:59.905Z,56.50
2022-08-17T14:27:05.652Z,56.54
2022-08-17T14:28:09.708Z,56.54
2022-08-17T14:29:15.329Z,56.19
2022-08-17T14:30:25.554Z,56.19
2022-08-17T14:31:34.112Z,55.41
2022-08-17T14:32:38.281Z,55.81
2022-08-17T14:33:42.407Z,56.94
2022-08-17T14:34:48.457Z,56.94
2022-08-17T14:35:53.968Z,55.95
2022-08-17T14:36:58.125Z,55.95
2022-08-17T14:38:02.379Z,58.10
2022-08-17T14:39:06.502Z,58.10
2022-08-17T14:40:13.110Z,57.56
2022-08-17T14:41:21.867Z,56.49
2022-08-17T14:42:26.423Z,56.49
2022-08-17T14:43:34.138Z,57.50
2022-08-17T14:44:40.882Z,57.50
2022-08-17T14:45:44.950Z,57.88
2022-08-17T14:46:49.124Z,57.83
2022-08-17T14:47:53.095Z,59.46
2022-08-17T14:48:59.104Z,58.95
2022-08-17T14:50:04.398Z,58.95
2022-08-17T14:51:10.142Z,59.63
2022-08-17T14:52:14.994Z,59.63
2022-08-17T14:53:19.097Z,58.07
2022-08-17T14:54:33.389Z,59.73
2022-08-17T14:55:28.888Z,59.73
2022-08-17T14:56:38.100Z,58.94
2022-08-17T14:57:39.380Z,59.60
2022-08-17T14:58:43.411Z,59.60
2022-08-17T14:59:53.182Z,59.38
2022-08-17T15:02:13.368Z,59.49
2022-08-17T15:02:36.253Z,59.38
2022-08-17T15:03:16.749Z,59.74